sensor_id;sensor_type;location;lat;lon;timestamp;temperature;humidity
14908;DHT22;7545;52.092;7.006;2024-03-02T00:02:11;8.60;99.90
14908;DHT22;7545;52.092;7.006;2024-03-02T00:04:37;8.60;99.90
14908;DHT22;7545;52.092;7.006;2024-03-02T00:07:03;8.60;99.90
14908;DHT22;7545;52.092;7.006;2024-03-02T00:09:29;8.60;99.90
14908;DHT22;7545;52.092;7.006;2024-03-02T00:11:54;8.50;99.90
14908;DHT22;7545;52.092;7.006;2024-03-02T00:14:20;8.50;99.90
14908;DHT22;7545;52.092;7.006;2024-03-02T00:16:46;8.50;99.90
14908;DHT22;7545;52.092;7.006;2024-03-02T00:19:12;8.50;99.90
14908;DHT22;7545;52.092;7.006;2024-03-02T00:21:38;8.50;99.90
14908;DHT22;7545;52.092;7.006;2024-03-02T00:24:21;8.50;99.90
14908;DHT22;7545;52.092;7.006;2024-03-02T00:26:47;8.50;99.90
14908;DHT22;7545;52.092;7.006;2024-03-02T00:29:16;8.50;99.90
14908;DHT22;7545;52.092;7.006;2024-03-02T00:31:43;8.50;99.90
14908;DHT22;7545;52.092;7.006;2024-03-02T00:34:09;8.50;99.90
14908;DHT22;7545;52.092;7.006;2024-03-02T00:36:38;8.50;99.90
14908;DHT22;7545;52.092;7.006;2024-03-02T00:39:03;8.50;99.90
14908;DHT22;7545;52.092;7.006;2024-03-02T00:41:32;8.50;99.90
14908;DHT22;7545;52.092;7.006;2024-03-02T00:44:07;8.50;99.90
14908;DHT22;7545;52.092;7.006;2024-03-02T00:46:35;8.50;99.90
14908;DHT22;7545;52.092;7.006;2024-03-02T00:49:04;8.50;99.90
14908;DHT22;7545;52.092;7.006;2024-03-02T00:51:31;8.50;99.90
14908;DHT22;7545;52.092;7.006;2024-03-02T00:54:03;8.50;99.90
14908;DHT22;7545;52.092;7.006;2024-03-02T00:56:30;8.50;99.90
14908;DHT22;7545;52.092;7.006;2024-03-02T00:58:56;8.50;99.90
14908;DHT22;7545;52.092;7.006;2024-03-02T01:01:22;8.50;99.90
14908;DHT22;7545;52.092;7.006;2024-03-02T01:03:48;8.50;99.90
14908;DHT22;7545;52.092;7.006;2024-03-02T01:06:17;8.50;99.90
14908;DHT22;7545;52.092;7.006;2024-03-02T01:08:43;8.50;99.90
14908;DHT22;7545;52.092;7.006;2024-03-02T01:11:09;8.50;99.90
14908;DHT22;7545;52.092;7.006;2024-03-02T01:13:34;8.50;99.90
14908;DHT22;7545;52.092;7.006;2024-03-02T01:16:01;8.50;99.90
14908;DHT22;7545;52.092;7.006;2024-03-02T01:18:27;8.50;99.90
14908;DHT22;7545;52.092;7.006;2024-03-02T01:20:52;8.50;99.90
14908;DHT22;7545;52.092;7.006;2024-03-02T01:23:20;8.50;99.90
14908;DHT22;7545;52.092;7.006;2024-03-02T01:25:50;8.50;99.90
14908;DHT22;7545;52.092;7.006;2024-03-02T01:28:16;8.50;99.90
14908;DHT22;7545;52.092;7.006;2024-03-02T01:30:41;8.50;99.90
14908;DHT22;7545;52.092;7.006;2024-03-02T01:33:07;8.50;99.90
14908;DHT22;7545;52.092;7.006;2024-03-02T01:35:33;8.50;99.90
14908;DHT22;7545;52.092;7.006;2024-03-02T01:37:58;8.50;99.90
14908;DHT22;7545;52.092;7.006;2024-03-02T01:40:24;8.40;99.90
14908;DHT22;7545;52.092;7.006;2024-03-02T01:42:52;8.40;99.90
14908;DHT22;7545;52.092;7.006;2024-03-02T01:45:18;8.40;99.90
14908;DHT22;7545;52.092;7.006;2024-03-02T01:47:43;8.40;99.90
14908;DHT22;7545;52.092;7.006;2024-03-02T01:50:11;8.40;99.90
14908;DHT22;7545;52.092;7.006;2024-03-02T01:52:37;8.40;99.90
14908;DHT22;7545;52.092;7.006;2024-03-02T01:55:03;8.40;99.90
14908;DHT22;7545;52.092;7.006;2024-03-02T01:57:29;8.40;99.90
14908;DHT22;7545;52.092;7.006;2024-03-02T01:59:55;8.40;99.90
14908;DHT22;7545;52.092;7.006;2024-03-02T02:02:21;8.40;99.90
14908;DHT22;7545;52.092;7.006;2024-03-02T02:04:47;8.40;99.90
14908;DHT22;7545;52.092;7.006;2024-03-02T02:07:12;8.40;99.90
14908;DHT22;7545;52.092;7.006;2024-03-02T02:09:41;8.40;99.90
14908;DHT22;7545;52.092;7.006;2024-03-02T02:12:06;8.40;99.90
14908;DHT22;7545;52.092;7.006;2024-03-02T02:14:33;8.40;99.90
14908;DHT22;7545;52.092;7.006;2024-03-02T02:16:59;8.40;99.90
14908;DHT22;7545;52.092;7.006;2024-03-02T02:19:25;8.40;99.90
14908;DHT22;7545;52.092;7.006;2024-03-02T02:21:50;8.40;99.90
14908;DHT22;7545;52.092;7.006;2024-03-02T02:24:16;8.40;99.90
14908;DHT22;7545;52.092;7.006;2024-03-02T02:26:41;8.40;99.90
14908;DHT22;7545;52.092;7.006;2024-03-02T02:29:07;8.40;99.90
14908;DHT22;7545;52.092;7.006;2024-03-02T02:31:39;8.40;99.90
14908;DHT22;7545;52.092;7.006;2024-03-02T02:34:05;8.40;99.90
14908;DHT22;7545;52.092;7.006;2024-03-02T02:36:34;8.40;99.90
14908;DHT22;7545;52.092;7.006;2024-03-02T02:39:03;8.40;99.90
14908;DHT22;7545;52.092;7.006;2024-03-02T02:41:29;8.40;99.90
14908;DHT22;7545;52.092;7.006;2024-03-02T02:43:55;8.50;99.90
14908;DHT22;7545;52.092;7.006;2024-03-02T02:46:21;8.40;99.90
14908;DHT22;7545;52.092;7.006;2024-03-02T02:48:46;8.50;99.90
14908;DHT22;7545;52.092;7.006;2024-03-02T02:51:12;8.50;99.90
14908;DHT22;7545;52.092;7.006;2024-03-02T02:53:38;8.50;99.90
14908;DHT22;7545;52.092;7.006;2024-03-02T02:56:06;8.50;99.90
14908;DHT22;7545;52.092;7.006;2024-03-02T02:58:32;8.50;99.90
14908;DHT22;7545;52.092;7.006;2024-03-02T03:00:57;8.50;99.90
14908;DHT22;7545;52.092;7.006;2024-03-02T03:03:23;8.50;99.90
14908;DHT22;7545;52.092;7.006;2024-03-02T03:05:49;8.50;99.90
14908;DHT22;7545;52.092;7.006;2024-03-02T03:08:14;8.50;99.90
14908;DHT22;7545;52.092;7.006;2024-03-02T03:10:41;8.50;99.90
14908;DHT22;7545;52.092;7.006;2024-03-02T03:13:07;8.50;99.90
14908;DHT22;7545;52.092;7.006;2024-03-02T03:15:36;8.50;99.90
14908;DHT22;7545;52.092;7.006;2024-03-02T03:18:04;8.50;99.90
14908;DHT22;7545;52.092;7.006;2024-03-02T03:20:30;8.60;99.90
14908;DHT22;7545;52.092;7.006;2024-03-02T03:22:57;8.60;99.90
14908;DHT22;7545;52.092;7.006;2024-03-02T03:25:22;8.60;99.90
14908;DHT22;7545;52.092;7.006;2024-03-02T03:27:48;8.60;99.90
14908;DHT22;7545;52.092;7.006;2024-03-02T03:30:14;8.50;99.90
14908;DHT22;7545;52.092;7.006;2024-03-02T03:32:39;8.60;99.90
14908;DHT22;7545;52.092;7.006;2024-03-02T03:35:06;8.60;99.90
14908;DHT22;7545;52.092;7.006;2024-03-02T03:37:31;8.60;99.90
14908;DHT22;7545;52.092;7.006;2024-03-02T03:39:59;8.60;99.90
14908;DHT22;7545;52.092;7.006;2024-03-02T03:42:24;8.60;99.90
14908;DHT22;7545;52.092;7.006;2024-03-02T03:44:50;8.60;99.90
14908;DHT22;7545;52.092;7.006;2024-03-02T03:47:16;8.60;99.90
14908;DHT22;7545;52.092;7.006;2024-03-02T03:49:41;8.50;99.90
14908;DHT22;7545;52.092;7.006;2024-03-02T03:52:07;8.60;99.90
14908;DHT22;7545;52.092;7.006;2024-03-02T03:54:32;8.50;99.90
14908;DHT22;7545;52.092;7.006;2024-03-02T03:56:58;8.50;99.90
14908;DHT22;7545;52.092;7.006;2024-03-02T03:59:23;8.50;99.90
14908;DHT22;7545;52.092;7.006;2024-03-02T04:01:49;8.40;99.90
14908;DHT22;7545;52.092;7.006;2024-03-02T04:04:14;8.40;99.90
14908;DHT22;7545;52.092;7.006;2024-03-02T04:06:40;8.40;99.90
14908;DHT22;7545;52.092;7.006;2024-03-02T04:09:06;8.30;99.90
14908;DHT22;7545;52.092;7.006;2024-03-02T04:11:31;8.30;99.90
14908;DHT22;7545;52.092;7.006;2024-03-02T04:13:57;8.30;99.90
14908;DHT22;7545;52.092;7.006;2024-03-02T04:16:22;8.20;99.90
14908;DHT22;7545;52.092;7.006;2024-03-02T04:18:48;8.20;99.90
14908;DHT22;7545;52.092;7.006;2024-03-02T04:21:13;8.20;99.90
14908;DHT22;7545;52.092;7.006;2024-03-02T04:23:39;8.20;99.90
14908;DHT22;7545;52.092;7.006;2024-03-02T04:26:05;8.10;99.90
14908;DHT22;7545;52.092;7.006;2024-03-02T04:28:30;8.10;99.90
14908;DHT22;7545;52.092;7.006;2024-03-02T04:30:56;8.10;99.90
14908;DHT22;7545;52.092;7.006;2024-03-02T04:33:21;8.00;99.90
14908;DHT22;7545;52.092;7.006;2024-03-02T04:35:47;8.00;99.90
14908;DHT22;7545;52.092;7.006;2024-03-02T04:38:12;8.00;99.90
14908;DHT22;7545;52.092;7.006;2024-03-02T04:40:38;7.80;99.90
14908;DHT22;7545;52.092;7.006;2024-03-02T04:43:03;7.90;99.90
14908;DHT22;7545;52.092;7.006;2024-03-02T04:45:29;7.90;99.90
14908;DHT22;7545;52.092;7.006;2024-03-02T04:47:55;7.80;99.90
14908;DHT22;7545;52.092;7.006;2024-03-02T04:50:20;7.80;99.90
14908;DHT22;7545;52.092;7.006;2024-03-02T04:52:46;7.80;99.90
14908;DHT22;7545;52.092;7.006;2024-03-02T04:55:12;7.70;99.90
14908;DHT22;7545;52.092;7.006;2024-03-02T04:57:43;7.70;99.90
14908;DHT22;7545;52.092;7.006;2024-03-02T05:00:10;7.60;99.90
14908;DHT22;7545;52.092;7.006;2024-03-02T05:02:36;7.60;99.90
14908;DHT22;7545;52.092;7.006;2024-03-02T05:05:01;7.60;99.90
14908;DHT22;7545;52.092;7.006;2024-03-02T05:07:28;7.50;99.90
14908;DHT22;7545;52.092;7.006;2024-03-02T05:09:53;7.50;99.90
14908;DHT22;7545;52.092;7.006;2024-03-02T05:12:19;7.40;99.90
14908;DHT22;7545;52.092;7.006;2024-03-02T05:15:04;7.40;99.90
14908;DHT22;7545;52.092;7.006;2024-03-02T05:17:29;7.40;99.90
14908;DHT22;7545;52.092;7.006;2024-03-02T05:19:55;7.40;99.90
14908;DHT22;7545;52.092;7.006;2024-03-02T05:22:21;7.30;99.90
14908;DHT22;7545;52.092;7.006;2024-03-02T05:24:46;7.30;99.90
14908;DHT22;7545;52.092;7.006;2024-03-02T05:27:12;7.30;99.90
14908;DHT22;7545;52.092;7.006;2024-03-02T05:29:37;7.30;99.90
14908;DHT22;7545;52.092;7.006;2024-03-02T05:32:03;7.20;99.90
14908;DHT22;7545;52.092;7.006;2024-03-02T05:34:28;7.20;99.90
14908;DHT22;7545;52.092;7.006;2024-03-02T05:36:56;7.20;99.90
14908;DHT22;7545;52.092;7.006;2024-03-02T05:39:23;7.10;99.90
14908;DHT22;7545;52.092;7.006;2024-03-02T05:41:48;7.10;99.90
14908;DHT22;7545;52.092;7.006;2024-03-02T05:44:14;7.10;99.90
14908;DHT22;7545;52.092;7.006;2024-03-02T05:46:41;7.10;99.90
14908;DHT22;7545;52.092;7.006;2024-03-02T05:49:06;7.10;99.90
14908;DHT22;7545;52.092;7.006;2024-03-02T05:51:33;7.00;99.90
14908;DHT22;7545;52.092;7.006;2024-03-02T05:53:58;7.00;99.90
14908;DHT22;7545;52.092;7.006;2024-03-02T05:56:24;7.00;99.90
14908;DHT22;7545;52.092;7.006;2024-03-02T05:58:50;7.00;99.90
14908;DHT22;7545;52.092;7.006;2024-03-02T06:01:34;7.00;99.90
14908;DHT22;7545;52.092;7.006;2024-03-02T06:03:59;6.90;99.90
14908;DHT22;7545;52.092;7.006;2024-03-02T06:06:25;6.90;99.90
14908;DHT22;7545;52.092;7.006;2024-03-02T06:08:51;6.90;99.90
14908;DHT22;7545;52.092;7.006;2024-03-02T06:11:19;6.90;99.90
14908;DHT22;7545;52.092;7.006;2024-03-02T06:13:44;6.80;99.90
14908;DHT22;7545;52.092;7.006;2024-03-02T06:16:10;6.80;99.90
14908;DHT22;7545;52.092;7.006;2024-03-02T06:18:36;6.70;99.90
14908;DHT22;7545;52.092;7.006;2024-03-02T06:21:01;6.70;99.90
14908;DHT22;7545;52.092;7.006;2024-03-02T06:23:27;6.70;99.90
14908;DHT22;7545;52.092;7.006;2024-03-02T06:25:53;6.60;99.90
14908;DHT22;7545;52.092;7.006;2024-03-02T06:28:18;6.60;99.90
14908;DHT22;7545;52.092;7.006;2024-03-02T06:30:44;6.60;99.90
14908;DHT22;7545;52.092;7.006;2024-03-02T06:33:10;6.60;99.90
14908;DHT22;7545;52.092;7.006;2024-03-02T06:35:36;6.60;99.90
14908;DHT22;7545;52.092;7.006;2024-03-02T06:38:02;6.60;99.90
14908;DHT22;7545;52.092;7.006;2024-03-02T06:40:27;6.50;99.90
14908;DHT22;7545;52.092;7.006;2024-03-02T06:42:53;6.50;99.90
14908;DHT22;7545;52.092;7.006;2024-03-02T06:45:19;6.50;99.90
14908;DHT22;7545;52.092;7.006;2024-03-02T06:47:44;6.50;99.90
14908;DHT22;7545;52.092;7.006;2024-03-02T06:50:11;6.50;99.90
14908;DHT22;7545;52.092;7.006;2024-03-02T06:52:36;6.50;99.90
14908;DHT22;7545;52.092;7.006;2024-03-02T06:55:02;6.50;99.90
14908;DHT22;7545;52.092;7.006;2024-03-02T06:57:30;6.50;99.90
14908;DHT22;7545;52.092;7.006;2024-03-02T06:59:55;6.50;99.90
14908;DHT22;7545;52.092;7.006;2024-03-02T07:02:26;6.50;99.90
14908;DHT22;7545;52.092;7.006;2024-03-02T07:04:53;6.50;99.90
14908;DHT22;7545;52.092;7.006;2024-03-02T07:07:19;6.50;99.90
14908;DHT22;7545;52.092;7.006;2024-03-02T07:09:44;6.50;99.90
14908;DHT22;7545;52.092;7.006;2024-03-02T07:12:10;6.60;99.90
14908;DHT22;7545;52.092;7.006;2024-03-02T07:14:35;6.60;99.90
14908;DHT22;7545;52.092;7.006;2024-03-02T07:17:24;6.60;99.90
14908;DHT22;7545;52.092;7.006;2024-03-02T07:19:50;6.60;99.90
14908;DHT22;7545;52.092;7.006;2024-03-02T07:22:15;6.60;99.90
14908;DHT22;7545;52.092;7.006;2024-03-02T07:24:42;6.70;99.90
14908;DHT22;7545;52.092;7.006;2024-03-02T07:27:09;6.70;99.90
14908;DHT22;7545;52.092;7.006;2024-03-02T07:29:34;6.70;99.90
14908;DHT22;7545;52.092;7.006;2024-03-02T07:32:00;6.80;99.90
14908;DHT22;7545;52.092;7.006;2024-03-02T07:34:25;6.90;99.90
14908;DHT22;7545;52.092;7.006;2024-03-02T07:36:51;6.90;99.90
14908;DHT22;7545;52.092;7.006;2024-03-02T07:39:17;7.00;99.90
14908;DHT22;7545;52.092;7.006;2024-03-02T07:41:43;7.10;99.90
14908;DHT22;7545;52.092;7.006;2024-03-02T07:44:09;7.10;99.90
14908;DHT22;7545;52.092;7.006;2024-03-02T07:46:34;7.20;99.90
14908;DHT22;7545;52.092;7.006;2024-03-02T07:49:00;7.20;99.90
14908;DHT22;7545;52.092;7.006;2024-03-02T07:51:25;7.30;99.90
14908;DHT22;7545;52.092;7.006;2024-03-02T07:53:51;7.40;99.90
14908;DHT22;7545;52.092;7.006;2024-03-02T07:56:17;7.50;99.90
14908;DHT22;7545;52.092;7.006;2024-03-02T07:58:50;7.50;99.90
14908;DHT22;7545;52.092;7.006;2024-03-02T08:01:15;7.60;99.90
14908;DHT22;7545;52.092;7.006;2024-03-02T08:03:43;7.60;99.90
14908;DHT22;7545;52.092;7.006;2024-03-02T08:06:19;7.70;99.90
14908;DHT22;7545;52.092;7.006;2024-03-02T08:08:47;7.70;99.90
14908;DHT22;7545;52.092;7.006;2024-03-02T08:11:13;7.80;99.90
14908;DHT22;7545;52.092;7.006;2024-03-02T08:13:38;7.90;99.90
14908;DHT22;7545;52.092;7.006;2024-03-02T08:16:05;7.90;99.90
14908;DHT22;7545;52.092;7.006;2024-03-02T08:18:33;8.00;99.90
14908;DHT22;7545;52.092;7.006;2024-03-02T08:20:58;8.00;99.90
14908;DHT22;7545;52.092;7.006;2024-03-02T08:23:24;8.10;99.90
14908;DHT22;7545;52.092;7.006;2024-03-02T08:25:49;8.10;99.90
14908;DHT22;7545;52.092;7.006;2024-03-02T08:28:15;8.20;99.90
14908;DHT22;7545;52.092;7.006;2024-03-02T08:30:41;8.20;99.90
14908;DHT22;7545;52.092;7.006;2024-03-02T08:33:06;8.30;99.90
14908;DHT22;7545;52.092;7.006;2024-03-02T08:35:32;8.40;99.90
14908;DHT22;7545;52.092;7.006;2024-03-02T08:38:02;8.40;99.90
14908;DHT22;7545;52.092;7.006;2024-03-02T08:40:28;8.50;99.90
14908;DHT22;7545;52.092;7.006;2024-03-02T08:42:54;8.50;99.90
14908;DHT22;7545;52.092;7.006;2024-03-02T08:45:19;8.50;99.90
14908;DHT22;7545;52.092;7.006;2024-03-02T08:47:46;8.60;99.90
14908;DHT22;7545;52.092;7.006;2024-03-02T08:50:12;8.70;99.90
14908;DHT22;7545;52.092;7.006;2024-03-02T08:52:37;8.70;99.90
14908;DHT22;7545;52.092;7.006;2024-03-02T08:55:03;8.80;99.90
14908;DHT22;7545;52.092;7.006;2024-03-02T08:57:28;8.80;99.90
14908;DHT22;7545;52.092;7.006;2024-03-02T08:59:54;8.90;99.90
14908;DHT22;7545;52.092;7.006;2024-03-02T09:02:20;8.90;99.90
14908;DHT22;7545;52.092;7.006;2024-03-02T09:04:45;9.00;99.90
14908;DHT22;7545;52.092;7.006;2024-03-02T09:07:11;9.00;99.90
14908;DHT22;7545;52.092;7.006;2024-03-02T09:09:36;9.10;99.90
14908;DHT22;7545;52.092;7.006;2024-03-02T09:12:05;9.20;99.90
14908;DHT22;7545;52.092;7.006;2024-03-02T09:14:30;9.20;99.90
14908;DHT22;7545;52.092;7.006;2024-03-02T09:16:56;9.30;99.90
14908;DHT22;7545;52.092;7.006;2024-03-02T09:19:22;9.30;99.90
14908;DHT22;7545;52.092;7.006;2024-03-02T09:21:47;9.40;99.90
14908;DHT22;7545;52.092;7.006;2024-03-02T09:24:13;9.50;99.90
14908;DHT22;7545;52.092;7.006;2024-03-02T09:26:38;9.50;99.90
14908;DHT22;7545;52.092;7.006;2024-03-02T09:29:04;9.60;99.90
14908;DHT22;7545;52.092;7.006;2024-03-02T09:31:29;9.70;99.90
14908;DHT22;7545;52.092;7.006;2024-03-02T09:33:55;9.70;99.90
14908;DHT22;7545;52.092;7.006;2024-03-02T09:36:21;9.80;99.90
14908;DHT22;7545;52.092;7.006;2024-03-02T09:38:48;9.90;99.90
14908;DHT22;7545;52.092;7.006;2024-03-02T09:41:14;9.90;99.90
14908;DHT22;7545;52.092;7.006;2024-03-02T09:43:40;10.00;99.90
14908;DHT22;7545;52.092;7.006;2024-03-02T09:46:08;10.00;99.90
14908;DHT22;7545;52.092;7.006;2024-03-02T09:48:34;10.10;99.90
14908;DHT22;7545;52.092;7.006;2024-03-02T09:51:00;10.10;99.90
14908;DHT22;7545;52.092;7.006;2024-03-02T09:53:31;10.20;99.90
14908;DHT22;7545;52.092;7.006;2024-03-02T09:55:59;10.20;99.90
14908;DHT22;7545;52.092;7.006;2024-03-02T09:58:24;10.20;99.90
14908;DHT22;7545;52.092;7.006;2024-03-02T10:00:50;10.40;99.90
14908;DHT22;7545;52.092;7.006;2024-03-02T10:03:15;10.40;99.90
14908;DHT22;7545;52.092;7.006;2024-03-02T10:05:43;10.40;99.90
14908;DHT22;7545;52.092;7.006;2024-03-02T10:08:09;10.50;99.90
14908;DHT22;7545;52.092;7.006;2024-03-02T10:10:39;10.50;99.90
14908;DHT22;7545;52.092;7.006;2024-03-02T10:13:10;10.60;99.90
14908;DHT22;7545;52.092;7.006;2024-03-02T10:15:37;10.70;99.90
14908;DHT22;7545;52.092;7.006;2024-03-02T10:18:04;10.70;99.90
14908;DHT22;7545;52.092;7.006;2024-03-02T10:20:29;10.80;99.90
14908;DHT22;7545;52.092;7.006;2024-03-02T10:22:55;10.90;99.90
14908;DHT22;7545;52.092;7.006;2024-03-02T10:25:32;10.90;99.90
14908;DHT22;7545;52.092;7.006;2024-03-02T10:27:59;10.90;99.90
14908;DHT22;7545;52.092;7.006;2024-03-02T10:30:27;11.00;99.90
14908;DHT22;7545;52.092;7.006;2024-03-02T10:32:56;11.00;99.90
14908;DHT22;7545;52.092;7.006;2024-03-02T10:35:22;11.10;99.90
14908;DHT22;7545;52.092;7.006;2024-03-02T10:37:52;11.10;99.90
14908;DHT22;7545;52.092;7.006;2024-03-02T10:40:21;11.20;99.90
14908;DHT22;7545;52.092;7.006;2024-03-02T10:42:47;11.20;99.90
14908;DHT22;7545;52.092;7.006;2024-03-02T10:45:15;11.30;99.90
14908;DHT22;7545;52.092;7.006;2024-03-02T10:47:42;11.40;99.90
14908;DHT22;7545;52.092;7.006;2024-03-02T10:50:08;11.50;99.90
14908;DHT22;7545;52.092;7.006;2024-03-02T10:52:43;11.50;99.90
14908;DHT22;7545;52.092;7.006;2024-03-02T10:55:09;11.60;99.90
14908;DHT22;7545;52.092;7.006;2024-03-02T10:57:52;11.60;99.90
14908;DHT22;7545;52.092;7.006;2024-03-02T11:00:19;11.70;99.90
14908;DHT22;7545;52.092;7.006;2024-03-02T11:02:58;11.70;99.90
14908;DHT22;7545;52.092;7.006;2024-03-02T11:05:28;11.80;99.90
14908;DHT22;7545;52.092;7.006;2024-03-02T11:08:00;11.90;99.90
14908;DHT22;7545;52.092;7.006;2024-03-02T11:10:28;12.00;99.90
14908;DHT22;7545;52.092;7.006;2024-03-02T11:12:59;12.10;99.90
14908;DHT22;7545;52.092;7.006;2024-03-02T11:15:27;12.20;99.90
14908;DHT22;7545;52.092;7.006;2024-03-02T11:17:53;12.20;99.90
14908;DHT22;7545;52.092;7.006;2024-03-02T11:20:20;12.20;99.90
14908;DHT22;7545;52.092;7.006;2024-03-02T11:22:46;12.20;99.90
14908;DHT22;7545;52.092;7.006;2024-03-02T11:25:28;12.30;99.90
14908;DHT22;7545;52.092;7.006;2024-03-02T11:33:03;12.50;99.90
14908;DHT22;7545;52.092;7.006;2024-03-02T11:35:36;12.60;99.90
14908;DHT22;7545;52.092;7.006;2024-03-02T11:38:03;12.70;99.90
14908;DHT22;7545;52.092;7.006;2024-03-02T11:40:30;12.80;99.90
14908;DHT22;7545;52.092;7.006;2024-03-02T11:42:56;12.80;99.90
14908;DHT22;7545;52.092;7.006;2024-03-02T11:45:23;12.90;99.90
14908;DHT22;7545;52.092;7.006;2024-03-02T11:47:56;13.00;99.90
14908;DHT22;7545;52.092;7.006;2024-03-02T11:50:34;13.10;99.90
14908;DHT22;7545;52.092;7.006;2024-03-02T11:53:05;13.20;99.90
14908;DHT22;7545;52.092;7.006;2024-03-02T11:55:37;13.30;99.90
14908;DHT22;7545;52.092;7.006;2024-03-02T11:58:04;13.40;99.90
14908;DHT22;7545;52.092;7.006;2024-03-02T12:00:29;13.40;99.90
14908;DHT22;7545;52.092;7.006;2024-03-02T12:03:15;13.50;99.90
14908;DHT22;7545;52.092;7.006;2024-03-02T12:05:42;13.50;99.90
14908;DHT22;7545;52.092;7.006;2024-03-02T12:08:08;13.60;99.90
14908;DHT22;7545;52.092;7.006;2024-03-02T12:10:35;13.60;99.90
14908;DHT22;7545;52.092;7.006;2024-03-02T12:13:02;13.60;99.90
14908;DHT22;7545;52.092;7.006;2024-03-02T12:15:32;13.70;99.90
14908;DHT22;7545;52.092;7.006;2024-03-02T12:17:59;13.70;99.90
14908;DHT22;7545;52.092;7.006;2024-03-02T12:20:26;13.80;99.90
14908;DHT22;7545;52.092;7.006;2024-03-02T12:22:56;13.90;99.90
14908;DHT22;7545;52.092;7.006;2024-03-02T12:25:23;13.90;99.90
14908;DHT22;7545;52.092;7.006;2024-03-02T12:27:51;14.00;99.90
14908;DHT22;7545;52.092;7.006;2024-03-02T12:30:17;14.00;99.90
14908;DHT22;7545;52.092;7.006;2024-03-02T12:32:44;14.10;99.90
14908;DHT22;7545;52.092;7.006;2024-03-02T12:35:13;14.10;99.90
14908;DHT22;7545;52.092;7.006;2024-03-02T12:37:47;14.10;99.90
14908;DHT22;7545;52.092;7.006;2024-03-02T12:40:14;14.20;99.90
14908;DHT22;7545;52.092;7.006;2024-03-02T12:42:40;14.30;99.90
14908;DHT22;7545;52.092;7.006;2024-03-02T12:45:07;14.30;99.90
14908;DHT22;7545;52.092;7.006;2024-03-02T12:47:34;14.40;99.90
14908;DHT22;7545;52.092;7.006;2024-03-02T12:50:00;14.50;99.90
14908;DHT22;7545;52.092;7.006;2024-03-02T12:52:26;14.60;99.90
14908;DHT22;7545;52.092;7.006;2024-03-02T12:54:52;14.60;99.90
14908;DHT22;7545;52.092;7.006;2024-03-02T12:57:18;14.60;99.90
14908;DHT22;7545;52.092;7.006;2024-03-02T12:59:47;14.70;99.90
14908;DHT22;7545;52.092;7.006;2024-03-02T13:02:19;14.80;99.90
14908;DHT22;7545;52.092;7.006;2024-03-02T13:04:52;14.80;99.90
14908;DHT22;7545;52.092;7.006;2024-03-02T13:07:23;14.80;99.90
14908;DHT22;7545;52.092;7.006;2024-03-02T13:09:53;14.90;99.90
14908;DHT22;7545;52.092;7.006;2024-03-02T13:12:21;14.90;99.90
14908;DHT22;7545;52.092;7.006;2024-03-02T13:14:51;14.90;99.90
14908;DHT22;7545;52.092;7.006;2024-03-02T13:17:20;15.00;99.90
14908;DHT22;7545;52.092;7.006;2024-03-02T13:19:56;15.10;99.90
14908;DHT22;7545;52.092;7.006;2024-03-02T13:22:22;15.20;99.90
14908;DHT22;7545;52.092;7.006;2024-03-02T13:24:52;15.30;99.90
14908;DHT22;7545;52.092;7.006;2024-03-02T13:27:18;15.40;99.90
14908;DHT22;7545;52.092;7.006;2024-03-02T13:29:47;15.50;99.90
14908;DHT22;7545;52.092;7.006;2024-03-02T13:32:19;15.50;99.90
14908;DHT22;7545;52.092;7.006;2024-03-02T13:34:49;15.60;99.90
14908;DHT22;7545;52.092;7.006;2024-03-02T13:37:14;15.70;99.90
14908;DHT22;7545;52.092;7.006;2024-03-02T13:39:40;15.70;99.90
14908;DHT22;7545;52.092;7.006;2024-03-02T13:42:11;15.80;99.90
14908;DHT22;7545;52.092;7.006;2024-03-02T13:44:38;15.80;99.90
14908;DHT22;7545;52.092;7.006;2024-03-02T13:47:04;15.80;99.90
14908;DHT22;7545;52.092;7.006;2024-03-02T13:49:31;15.90;99.90
14908;DHT22;7545;52.092;7.006;2024-03-02T13:52:03;15.90;99.90
14908;DHT22;7545;52.092;7.006;2024-03-02T13:54:30;15.90;99.90
14908;DHT22;7545;52.092;7.006;2024-03-02T13:56:56;15.90;99.90
14908;DHT22;7545;52.092;7.006;2024-03-02T13:59:24;15.80;99.90
14908;DHT22;7545;52.092;7.006;2024-03-02T14:01:50;15.90;99.90
14908;DHT22;7545;52.092;7.006;2024-03-02T14:04:16;15.90;99.90
14908;DHT22;7545;52.092;7.006;2024-03-02T14:06:43;15.90;99.90
14908;DHT22;7545;52.092;7.006;2024-03-02T14:09:09;15.80;99.90
14908;DHT22;7545;52.092;7.006;2024-03-02T14:11:34;15.80;99.90
14908;DHT22;7545;52.092;7.006;2024-03-02T14:14:01;15.70;99.90
14908;DHT22;7545;52.092;7.006;2024-03-02T14:16:27;15.60;99.90
14908;DHT22;7545;52.092;7.006;2024-03-02T14:18:52;15.50;99.90
14908;DHT22;7545;52.092;7.006;2024-03-02T14:21:18;15.40;99.90
14908;DHT22;7545;52.092;7.006;2024-03-02T14:23:44;15.40;99.90
14908;DHT22;7545;52.092;7.006;2024-03-02T14:26:09;15.40;99.90
14908;DHT22;7545;52.092;7.006;2024-03-02T14:28:35;15.40;99.90
14908;DHT22;7545;52.092;7.006;2024-03-02T14:31:00;15.40;99.90
14908;DHT22;7545;52.092;7.006;2024-03-02T14:33:27;15.40;99.90
14908;DHT22;7545;52.092;7.006;2024-03-02T14:35:52;15.50;99.90
14908;DHT22;7545;52.092;7.006;2024-03-02T14:38:19;15.50;99.90
14908;DHT22;7545;52.092;7.006;2024-03-02T14:40:44;15.60;99.90
14908;DHT22;7545;52.092;7.006;2024-03-02T14:43:10;15.60;99.90
14908;DHT22;7545;52.092;7.006;2024-03-02T14:45:35;15.60;99.90
14908;DHT22;7545;52.092;7.006;2024-03-02T14:48:02;15.60;99.90
14908;DHT22;7545;52.092;7.006;2024-03-02T14:50:28;15.70;99.90
14908;DHT22;7545;52.092;7.006;2024-03-02T14:52:54;15.70;99.90
14908;DHT22;7545;52.092;7.006;2024-03-02T14:55:22;15.70;99.90
14908;DHT22;7545;52.092;7.006;2024-03-02T14:57:49;15.70;99.90
14908;DHT22;7545;52.092;7.006;2024-03-02T15:00:14;15.60;99.90
14908;DHT22;7545;52.092;7.006;2024-03-02T15:02:40;15.60;99.90
14908;DHT22;7545;52.092;7.006;2024-03-02T15:05:06;15.60;99.90
14908;DHT22;7545;52.092;7.006;2024-03-02T15:07:32;15.50;99.90
14908;DHT22;7545;52.092;7.006;2024-03-02T15:09:58;15.50;99.90
14908;DHT22;7545;52.092;7.006;2024-03-02T15:12:23;15.40;99.90
14908;DHT22;7545;52.092;7.006;2024-03-02T15:14:49;15.40;99.90
14908;DHT22;7545;52.092;7.006;2024-03-02T15:17:15;15.30;99.90
14908;DHT22;7545;52.092;7.006;2024-03-02T15:19:45;15.20;99.90
14908;DHT22;7545;52.092;7.006;2024-03-02T15:22:11;15.10;99.90
14908;DHT22;7545;52.092;7.006;2024-03-02T15:24:37;15.00;99.90
14908;DHT22;7545;52.092;7.006;2024-03-02T15:27:04;14.90;99.90
14908;DHT22;7545;52.092;7.006;2024-03-02T15:29:31;14.80;99.90
14908;DHT22;7545;52.092;7.006;2024-03-02T15:31:57;14.80;99.90
14908;DHT22;7545;52.092;7.006;2024-03-02T15:34:23;14.70;99.90
14908;DHT22;7545;52.092;7.006;2024-03-02T15:36:49;14.60;99.90
14908;DHT22;7545;52.092;7.006;2024-03-02T15:39:15;14.60;99.90
14908;DHT22;7545;52.092;7.006;2024-03-02T15:41:40;14.60;99.90
14908;DHT22;7545;52.092;7.006;2024-03-02T15:44:07;14.60;99.90
14908;DHT22;7545;52.092;7.006;2024-03-02T15:46:33;14.50;99.90
14908;DHT22;7545;52.092;7.006;2024-03-02T15:48:59;14.50;99.90
14908;DHT22;7545;52.092;7.006;2024-03-02T15:51:26;14.50;99.90
14908;DHT22;7545;52.092;7.006;2024-03-02T15:53:52;14.50;99.90
14908;DHT22;7545;52.092;7.006;2024-03-02T15:56:17;14.60;99.90
14908;DHT22;7545;52.092;7.006;2024-03-02T15:58:43;14.60;99.90